Time;durP1;ratioP1;P1;durP2;ratioP2;P2;SDS_P1;SDS_P2;PMS_P1;PMS_P2;Temp;Humidity;BMP_temperature;BMP_pressure;BME280_temperature;BME280_humidity;BME280_pressure;Samples;Min_cycle;Max_cycle;Signal;HPM_P1;HPM_P2
2022/12/10 00:01:13;;;;;;;86.55;48.17;;;-1.00;77.20;;;;;;5032436;28;20033;-65
2022/12/10 00:03:38;;;;;;;105.72;55.17;;;-1.00;75.80;;;;;;5032697;28;20021;-65
2022/12/10 00:06:07;;;;;;;82.05;45.78;;;-1.00;76.40;;;;;;5038978;28;20392;-66
2022/12/10 00:08:34;;;;;;;115.65;57.85;;;-1.00;75.50;;;;;;5052410;28;20056;-65
2022/12/10 00:11:01;;;;;;;126.30;55.22;;;-0.90;75.60;;;;;;5052497;28;20097;-65
2022/12/10 00:13:27;;;;;;;113.60;54.53;;;-0.90;75.80;;;;;;5046422;28;20120;-65
2022/12/10 00:15:53;;;;;;;112.35;53.55;;;-1.00;75.40;;;;;;5059446;28;20478;-65
2022/12/10 00:18:18;;;;;;;88.93;49.17;;;-1.00;75.90;;;;;;5059294;28;20040;-66
2022/12/10 00:20:44;;;;;;;87.80;49.08;;;-1.00;74.90;;;;;;5060318;28;20033;-65
2022/12/10 00:23:09;;;;;;;93.72;51.17;;;-1.00;74.40;;;;;;5040753;28;20030;-65
2022/12/10 00:25:35;;;;;;;133.40;58.47;;;-1.00;74.80;;;;;;5038890;28;20064;-65
2022/12/10 00:28:00;;;;;;;87.50;47.05;;;-1.00;74.50;;;;;;5037641;28;20041;-65
2022/12/10 00:30:26;;;;;;;111.60;55.33;;;-0.90;74.40;;;;;;5039065;28;20022;-65
2022/12/10 00:32:55;;;;;;;77.57;43.60;;;-1.00;74.50;;;;;;5038960;28;20053;-65
2022/12/10 00:35:20;;;;;;;105.85;52.38;;;-1.00;74.70;;;;;;5039012;28;20021;-65
2022/12/10 00:37:46;;;;;;;115.97;55.15;;;-1.00;74.30;;;;;;5054444;28;20017;-65
2022/12/10 00:40:12;;;;;;;123.03;58.90;;;-0.90;73.70;;;;;;5039530;28;20032;-65
2022/12/10 00:42:37;;;;;;;104.30;53.58;;;-0.90;74.30;;;;;;5037606;28;20029;-65
2022/12/10 00:45:04;;;;;;;122.93;58.25;;;-0.90;74.50;;;;;;5038811;28;20037;-65
2022/12/10 00:47:30;;;;;;;95.20;49.58;;;-1.00;74.70;;;;;;5038846;28;20080;-65
2022/12/10 00:49:55;;;;;;;113.22;53.78;;;-1.00;74.40;;;;;;5051862;28;20036;-65
2022/12/10 00:52:21;;;;;;;108.32;52.70;;;-1.00;74.70;;;;;;5056776;28;20033;-66
2022/12/10 00:54:47;;;;;;;111.88;56.25;;;-1.00;74.00;;;;;;5056759;28;20032;-65
2022/12/10 00:57:12;;;;;;;134.20;60.13;;;-0.90;73.50;;;;;;5056312;28;20028;-65
2022/12/10 00:59:38;;;;;;;135.25;59.33;;;-1.00;74.50;;;;;;5041180;28;20029;-65
2022/12/10 01:02:03;;;;;;;136.73;61.10;;;-1.00;74.50;;;;;;5058420;28;20063;-66
2022/12/10 01:04:29;;;;;;;86.32;46.10;;;-1.00;74.10;;;;;;5058519;28;20028;-66
2022/12/10 01:06:55;;;;;;;81.38;45.00;;;-1.00;72.80;;;;;;5058373;28;20195;-66
2022/12/10 01:09:23;;;;;;;101.72;49.67;;;-0.90;72.80;;;;;;5058439;28;20029;-65
2022/12/10 01:11:50;;;;;;;95.07;48.85;;;-0.90;73.30;;;;;;5058140;28;20128;-63
2022/12/10 01:14:23;;;;;;;127.88;59.35;;;-1.00;73.10;;;;;;5037782;28;20030;-64
2022/12/10 01:16:50;;;;;;;105.93;52.53;;;-0.90;73.50;;;;;;5038408;28;20014;-64
2022/12/10 01:19:19;;;;;;;123.55;56.20;;;-1.00;73.10;;;;;;5038260;28;20109;-64
2022/12/10 01:21:45;;;;;;;126.40;58.50;;;-0.90;73.50;;;;;;5037450;28;20026;-66
2022/12/10 01:24:10;;;;;;;96.97;50.30;;;-0.90;73.60;;;;;;5038116;28;20029;-65
2022/12/10 01:26:36;;;;;;;84.95;45.67;;;-0.90;73.20;;;;;;5037826;28;20049;-66
2022/12/10 01:29:03;;;;;;;76.53;42.47;;;-0.90;73.60;;;;;;5036907;28;20426;-66
2022/12/10 01:31:35;;;;;;;99.65;49.22;;;-0.90;73.20;;;;;;5057967;28;20025;-66
2022/12/10 01:34:02;;;;;;;94.45;48.13;;;-0.90;72.60;;;;;;5057974;28;20110;-66
2022/12/10 01:36:30;;;;;;;77.90;42.08;;;-0.90;73.30;;;;;;5058047;28;20372;-65
2022/12/10 01:38:59;;;;;;;79.88;40.97;;;-0.90;73.00;;;;;;5066355;28;20352;-65
2022/12/10 01:41:29;;;;;;;94.97;48.67;;;-0.80;72.50;;;;;;5056692;28;20435;-65
2022/12/10 01:44:25;;;;;;;115.65;53.00;;;-0.70;72.90;;;;;;5052475;28;20033;-66
2022/12/10 01:47:00;;;;;;;126.97;56.17;;;-0.70;73.90;;;;;;5045967;28;20061;-66
2022/12/10 01:49:34;;;;;;;98.28;48.60;;;-0.80;74.30;;;;;;5041088;28;20055;-65
2022/12/10 01:52:05;;;;;;;115.72;53.22;;;-0.80;73.50;;;;;;5056664;28;20405;-65
2022/12/10 01:54:36;;;;;;;87.28;47.50;;;-0.80;73.80;;;;;;5057758;28;20314;-65
2022/12/10 01:57:07;;;;;;;100.40;48.80;;;-0.80;73.90;;;;;;5057391;28;20025;-65
2022/12/10 01:59:34;;;;;;;71.85;41.22;;;-0.80;73.00;;;;;;5046430;28;20048;-65
2022/12/10 02:02:22;;;;;;;80.90;44.85;;;-0.70;73.00;;;;;;5044162;28;20418;-65
2022/12/10 02:05:19;;;;;;;89.43;46.67;;;-0.60;73.60;;;;;;5042179;28;20056;-65
2022/12/10 02:08:03;;;;;;;109.90;51.33;;;-0.70;75.20;;;;;;5019800;28;20045;-65
2022/12/10 02:10:38;;;;;;;77.57;42.28;;;-0.70;75.30;;;;;;5037177;28;20013;-65
2022/12/10 02:13:22;;;;;;;74.05;41.38;;;-0.70;75.00;;;;;;5035981;28;20025;-65
2022/12/10 02:15:56;;;;;;;113.68;52.65;;;-0.70;74.40;;;;;;5062090;28;20029;-65
2022/12/10 02:18:39;;;;;;;89.50;46.08;;;-0.70;76.40;;;;;;5037041;28;20079;-65
2022/12/10 02:21:28;;;;;;;80.78;44.13;;;-0.70;75.20;;;;;;5046110;28;20077;-65
2022/12/10 02:23:59;;;;;;;95.00;49.47;;;-0.60;75.40;;;;;;5047460;28;20120;-65
2022/12/10 02:26:43;;;;;;;90.22;47.13;;;-0.70;76.30;;;;;;5056830;28;20323;-66
2022/12/10 02:29:14;;;;;;;98.45;49.47;;;-0.70;75.50;;;;;;5049710;28;20022;-65
2022/12/10 02:31:55;;;;;;;77.47;43.88;;;-0.60;76.20;;;;;;5042221;28;20052;-65
2022/12/10 02:34:22;;;;;;;75.55;42.03;;;-0.60;75.50;;;;;;5051778;28;20033;-65
2022/12/10 02:36:53;;;;;;;78.15;44.03;;;-0.60;75.20;;;;;;5061902;28;20012;-65
2022/12/10 02:39:27;;;;;;;79.43;42.92;;;-0.60;76.00;;;;;;5047107;28;20083;-65
2022/12/10 02:41:54;;;;;;;85.10;45.13;;;-0.60;75.80;;;;;;5036674;28;20067;-64
2022/12/10 02:44:23;;;;;;;91.65;47.22;;;-0.50;76.30;;;;;;5035074;28;20148;-64
2022/12/10 02:46:51;;;;;;;86.07;45.53;;;-0.60;77.30;;;;;;5036476;28;20033;-64
2022/12/10 02:49:18;;;;;;;88.80;46.85;;;-0.60;76.10;;;;;;5050448;28;20032;-64
2022/12/10 02:51:47;;;;;;;83.93;45.15;;;-0.50;76.30;;;;;;5037546;28;20033;-64
2022/12/10 02:54:40;;;;;;;98.13;49.50;;;-0.60;76.90;;;;;;5040786;28;20029;-65
2022/12/10 02:57:14;;;;;;;69.72;38.58;;;-0.60;77.20;;;;;;5036396;28;20033;-64
2022/12/10 03:00:04;;;;;;;74.57;43.08;;;-0.50;76.10;;;;;;5034246;28;20319;-64
2022/12/10 03:03:02;;;;;;;80.10;43.83;;;-0.50;77.40;;;;;;5045477;28;20036;-64
2022/12/10 03:05:55;;;;;;;79.45;42.08;;;-0.50;77.20;;;;;;5054178;28;20368;-64
2022/12/10 03:08:26;;;;;;;73.87;41.83;;;-0.50;77.70;;;;;;5035764;28;20410;-64
2022/12/10 03:11:09;;;;;;;81.38;44.53;;;-0.50;77.80;;;;;;5043030;28;20049;-64
2022/12/10 03:13:46;;;;;;;90.43;46.78;;;-0.60;78.50;;;;;;5052955;28;20028;-64
2022/12/10 03:16:14;;;;;;;77.07;43.63;;;-0.60;78.20;;;;;;5039637;28;20040;-64
2022/12/10 03:18:40;;;;;;;74.68;42.13;;;-0.60;78.90;;;;;;5043842;28;20033;-64
2022/12/10 03:21:08;;;;;;;71.55;41.05;;;-0.60;77.40;;;;;;5043980;28;20025;-64
2022/12/10 03:23:40;;;;;;;80.72;43.58;;;-0.50;77.30;;;;;;5055184;28;20108;-64
2022/12/10 03:26:06;;;;;;;95.72;49.88;;;-0.40;77.00;;;;;;5054597;28;20063;-64
2022/12/10 03:28:40;;;;;;;75.70;42.28;;;-0.50;79.10;;;;;;5038867;28;20365;-64
2022/12/10 03:31:13;;;;;;;101.78;51.03;;;-0.50;78.40;;;;;;5060157;28;20086;-64
2022/12/10 03:33:40;;;;;;;97.35;51.00;;;-0.60;79.60;;;;;;5059824;28;20024;-64
2022/12/10 03:36:07;;;;;;;101.60;51.08;;;-0.50;77.60;;;;;;5054234;28;20033;-64
2022/12/10 03:38:33;;;;;;;86.32;44.92;;;-0.50;78.30;;;;;;5040809;28;20021;-64
2022/12/10 03:41:02;;;;;;;85.25;47.08;;;-0.50;77.80;;;;;;5055670;28;20017;-64
2022/12/10 03:43:28;;;;;;;102.78;49.83;;;-0.50;78.00;;;;;;5054310;28;20017;-64
2022/12/10 03:45:53;;;;;;;110.97;52.33;;;-0.50;77.70;;;;;;5047510;28;20056;-66
2022/12/10 03:48:19;;;;;;;131.55;60.53;;;-0.50;78.20;;;;;;5035609;28;20040;-64
2022/12/10 03:50:44;;;;;;;95.68;48.72;;;-0.50;78.30;;;;;;5039365;28;20017;-64
2022/12/10 03:53:12;;;;;;;82.25;44.15;;;-0.60;77.60;;;;;;5035537;28;20025;-64
2022/12/10 03:55:38;;;;;;;92.65;47.85;;;-0.60;77.30;;;;;;5035685;28;20480;-64
2022/12/10 03:58:04;;;;;;;81.15;44.80;;;-0.60;76.90;;;;;;5034550;28;20017;-64
2022/12/10 04:00:29;;;;;;;88.18;47.47;;;-0.60;77.00;;;;;;5035410;28;20052;-64
2022/12/10 04:02:55;;;;;;;79.40;43.63;;;-0.60;77.10;;;;;;5035932;28;20051;-64
2022/12/10 04:05:20;;;;;;;104.35;52.92;;;-0.60;76.90;;;;;;5035280;28;20032;-64
2022/12/10 04:07:46;;;;;;;105.25;50.85;;;-0.60;77.00;;;;;;5035764;28;20033;-63
2022/12/10 04:10:12;;;;;;;84.57;46.47;;;-0.60;76.80;;;;;;5035675;28;20065;-63
2022/12/10 04:12:38;;;;;;;117.22;54.15;;;-0.60;75.90;;;;;;5034160;28;20056;-63
2022/12/10 04:17:48;;;;;;;108.45;50.42;;;-0.60;76.90;;;;;;5035618;28;20330;-66
2022/12/10 04:28:37;;;;;;;112.90;52.75;;;-0.60;76.30;;;;;;5050738;28;20056;-65
2022/12/10 04:31:04;;;;;;;98.07;45.95;;;-0.60;75.80;;;;;;5055168;28;20033;-65
2022/12/10 04:33:30;;;;;;;349.27;61.17;;;-0.60;76.00;;;;;;5055130;28;20021;-65
2022/12/10 04:35:58;;;;;;;304.25;58.60;;;-0.60;74.80;;;;;;5050545;28;20018;-64
2022/12/10 04:38:23;;;;;;;263.75;60.47;;;-0.60;75.20;;;;;;5054744;28;20348;-65
2022/12/10 04:40:49;;;;;;;149.57;48.75;;;-0.60;75.00;;;;;;5055256;28;20029;-64
2022/12/10 04:43:14;;;;;;;140.30;46.55;;;-0.60;73.50;;;;;;5054057;28;20087;-64
2022/12/10 04:45:40;;;;;;;246.23;53.15;;;-0.50;73.40;;;;;;5054963;28;20032;-64
2022/12/10 04:48:06;;;;;;;113.70;41.47;;;-0.50;73.40;;;;;;5055165;28;20056;-64
2022/12/10 04:50:31;;;;;;;119.63;40.95;;;-0.40;72.80;;;;;;5051603;28;20067;-64
2022/12/10 04:52:57;;;;;;;106.63;40.15;;;-0.40;72.80;;;;;;5035168;28;20105;-64
2022/12/10 04:55:22;;;;;;;114.00;39.97;;;-0.40;72.40;;;;;;5035483;28;20030;-64
2022/12/10 04:57:48;;;;;;;88.45;42.45;;;-0.30;72.50;;;;;;5035549;28;20062;-64
2022/12/10 05:00:14;;;;;;;153.07;52.47;;;-0.30;74.50;;;;;;5038654;28;20022;-65
2022/12/10 05:02:39;;;;;;;174.80;56.80;;;-0.30;74.20;;;;;;5038493;28;20096;-64
2022/12/10 05:05:05;;;;;;;152.23;59.65;;;-0.40;74.50;;;;;;5038209;28;20061;-64
2022/12/10 05:07:32;;;;;;;97.90;45.78;;;-0.40;74.40;;;;;;5038364;28;20079;-64
2022/12/10 05:09:57;;;;;;;129.43;57.53;;;-0.40;74.10;;;;;;5038592;28;20112;-64
2022/12/10 05:12:28;;;;;;;273.00;76.05;;;-0.40;73.80;;;;;;5038758;28;20120;-65
2022/12/10 05:14:54;;;;;;;106.30;43.17;;;-0.40;73.60;;;;;;5037095;28;20038;-64
2022/12/10 05:17:19;;;;;;;85.35;44.00;;;-0.40;72.50;;;;;;5038292;28;20025;-64
2022/12/10 05:19:45;;;;;;;96.55;45.13;;;-0.30;73.70;;;;;;5038252;28;20064;-64
2022/12/10 05:24:54;;;;;;;;;;;-0.30;73.20;;;;;;5038927;28;20091;-64
2022/12/10 05:27:20;;;;;;;96.75;44.78;;;-0.40;73.60;;;;;;5040601;28;19917;-64
2022/12/10 05:29:46;;;;;;;99.28;45.05;;;-0.40;74.80;;;;;;5052460;28;20037;-64
2022/12/10 05:32:11;;;;;;;95.05;46.35;;;-0.50;74.40;;;;;;5037954;28;20041;-64
2022/12/10 05:34:37;;;;;;;77.78;38.50;;;-0.50;74.00;;;;;;5078925;28;20436;-64
2022/12/10 05:37:02;;;;;;;65.50;35.60;;;-0.40;72.70;;;;;;5042766;28;20328;-64
2022/12/10 05:39:28;;;;;;;67.50;35.80;;;-0.30;72.60;;;;;;5051911;28;20100;-64
2022/12/10 05:41:54;;;;;;;88.07;42.63;;;-0.20;74.10;;;;;;5057754;28;20170;-64
2022/12/10 05:44:19;;;;;;;96.03;42.67;;;-0.30;75.00;;;;;;5048107;28;20037;-64
2022/12/10 05:46:45;;;;;;;79.50;41.42;;;-0.30;76.10;;;;;;5057549;28;20033;-64
2022/12/10 05:49:10;;;;;;;84.25;39.53;;;-0.30;75.50;;;;;;5056732;28;20096;-64
2022/12/10 05:51:38;;;;;;;81.10;39.58;;;-0.30;75.30;;;;;;5045491;28;20033;-64
2022/12/10 05:54:04;;;;;;;66.63;36.60;;;-0.30;76.10;;;;;;5037723;28;20021;-64
2022/12/10 05:56:30;;;;;;;74.00;38.58;;;-0.30;74.70;;;;;;5037629;28;20017;-65
2022/12/10 05:59:02;;;;;;;61.83;34.10;;;-0.20;74.90;;;;;;5051910;28;20347;-64
2022/12/10 06:01:30;;;;;;;58.88;33.05;;;-0.20;75.70;;;;;;5045734;28;20103;-64
2022/12/10 06:03:58;;;;;;;59.58;34.15;;;-0.20;74.70;;;;;;5051095;28;20252;-64
2022/12/10 06:06:27;;;;;;;68.60;37.25;;;-0.10;76.10;;;;;;5045023;28;20374;-64
2022/12/10 06:08:55;;;;;;;59.40;32.83;;;-0.20;78.20;;;;;;5042262;28;20100;-64
2022/12/10 06:11:21;;;;;;;61.33;34.75;;;-0.20;78.70;;;;;;5057052;28;20025;-64
2022/12/10 06:13:47;;;;;;;57.78;32.92;;;-0.10;78.60;;;;;;5055988;28;20051;-64
2022/12/10 06:16:14;;;;;;;62.70;34.38;;;-0.10;79.70;;;;;;5056811;28;20080;-64
2022/12/10 06:18:40;;;;;;;61.78;35.80;;;-0.10;79.90;;;;;;5051186;28;20028;-64
2022/12/10 06:21:08;;;;;;;64.93;34.97;;;-0.10;80.60;;;;;;5042584;28;20036;-64
2022/12/10 06:23:35;;;;;;;67.57;36.72;;;-0.10;81.00;;;;;;5056885;28;20029;-64
2022/12/10 06:26:08;;;;;;;69.32;38.15;;;-0.10;81.30;;;;;;5056815;28;20096;-64
2022/12/10 06:28:34;;;;;;;66.72;36.67;;;-0.10;81.40;;;;;;5055764;28;20032;-64
2022/12/10 06:31:00;;;;;;;80.22;39.45;;;-0.20;82.70;;;;;;5056682;28;20033;-64
2022/12/10 06:33:26;;;;;;;79.82;41.13;;;-0.10;81.70;;;;;;5056607;28;20025;-64
2022/12/10 06:35:51;;;;;;;67.15;37.22;;;-0.10;82.40;;;;;;5045238;28;20022;-63
2022/12/10 06:38:17;;;;;;;76.40;40.50;;;-0.10;82.50;;;;;;5036797;28;20034;-64
2022/12/10 06:40:43;;;;;;;73.35;39.92;;;-0.20;83.00;;;;;;5036666;28;20017;-64
2022/12/10 06:43:08;;;;;;;75.35;39.22;;;-0.10;82.60;;;;;;5050906;28;20108;-64
2022/12/10 06:45:37;;;;;;;69.53;37.30;;;-0.10;83.30;;;;;;5036468;28;20143;-64
2022/12/10 06:48:03;;;;;;;81.43;41.22;;;-0.10;83.80;;;;;;5036444;28;20036;-64
2022/12/10 06:50:29;;;;;;;71.57;38.72;;;-0.10;84.10;;;;;;5036311;28;20030;-64
2022/12/10 06:52:54;;;;;;;82.88;42.10;;;-0.10;84.20;;;;;;5046613;28;20033;-64
2022/12/10 06:55:20;;;;;;;78.35;41.75;;;-0.20;84.40;;;;;;5036247;28;20100;-64
2022/12/10 06:57:45;;;;;;;82.03;43.05;;;-0.20;83.20;;;;;;5035216;28;20026;-64
2022/12/10 07:00:12;;;;;;;87.95;43.42;;;-0.10;83.20;;;;;;5038697;28;20017;-64
2022/12/10 07:02:37;;;;;;;83.50;41.13;;;-0.20;83.20;;;;;;5055518;28;20031;-64
2022/12/10 07:05:03;;;;;;;73.35;39.15;;;-0.20;82.90;;;;;;5054052;28;20310;-63
2022/12/10 07:07:29;;;;;;;63.80;36.20;;;-0.20;82.30;;;;;;5055881;28;20029;-64
2022/12/10 07:09:54;;;;;;;64.15;35.53;;;-0.20;83.40;;;;;;5053095;28;20333;-63
2022/12/10 07:12:20;;;;;;;69.20;37.45;;;-0.30;84.20;;;;;;5048120;28;20033;-66
2022/12/10 07:14:45;;;;;;;71.30;37.70;;;-0.30;84.10;;;;;;5052419;28;20025;-66
2022/12/10 07:17:14;;;;;;;62.47;34.83;;;-0.30;84.90;;;;;;5055557;28;20021;-66
2022/12/10 07:19:39;;;;;;;60.95;33.47;;;-0.30;84.40;;;;;;5041528;28;20021;-66
2022/12/10 07:22:05;;;;;;;65.68;35.05;;;-0.20;84.70;;;;;;5052573;28;20083;-65
2022/12/10 07:24:31;;;;;;;77.68;42.03;;;-0.20;85.80;;;;;;5035800;28;20051;-66
2022/12/10 07:26:59;;;;;;;92.47;45.58;;;-0.10;86.50;;;;;;5041272;28;20048;-64
2022/12/10 07:29:26;;;;;;;76.90;40.33;;;-0.10;86.60;;;;;;5048629;28;20460;-65
2022/12/10 07:31:52;;;;;;;90.55;44.22;;;-0.10;85.20;;;;;;5035430;28;20036;-64
2022/12/10 07:34:18;;;;;;;88.82;42.97;;;-0.10;85.00;;;;;;5036893;28;20306;-66
2022/12/10 07:36:49;;;;;;;103.75;49.10;;;-0.10;84.70;;;;;;5035639;28;20409;-65
2022/12/10 07:39:18;;;;;;;71.32;39.72;;;-0.10;84.70;;;;;;5051814;28;20067;-66
2022/12/10 07:41:49;;;;;;;89.85;45.15;;;-0.10;82.70;;;;;;5055306;28;20306;-65
2022/12/10 07:44:16;;;;;;;94.05;45.55;;;0.00;82.90;;;;;;5036021;28;20018;-64
2022/12/10 07:46:42;;;;;;;96.32;42.35;;;-0.10;83.10;;;;;;5038111;28;20030;-64
2022/12/10 07:49:10;;;;;;;163.35;50.15;;;-0.10;82.40;;;;;;5042547;28;20079;-65
2022/12/10 07:51:36;;;;;;;92.65;43.53;;;-0.10;83.00;;;;;;5050032;28;20034;-64
2022/12/10 07:54:02;;;;;;;90.32;44.97;;;-0.10;82.60;;;;;;5051859;28;20051;-65
2022/12/10 07:56:28;;;;;;;192.95;52.58;;;-0.10;82.50;;;;;;5046980;28;20418;-65
2022/12/10 07:58:56;;;;;;;114.63;50.17;;;-0.10;83.50;;;;;;5052957;28;20036;-64
2022/12/10 08:01:24;;;;;;;102.75;49.38;;;-0.20;83.40;;;;;;5052159;28;20028;-64
2022/12/10 08:03:51;;;;;;;101.30;48.22;;;-0.30;82.30;;;;;;5049852;28;20026;-64
2022/12/10 08:06:19;;;;;;;115.40;53.15;;;-0.30;81.20;;;;;;5032022;28;20025;-64
2022/12/10 08:08:45;;;;;;;90.38;46.72;;;-0.30;81.80;;;;;;5028090;28;20057;-65
2022/12/10 08:11:12;;;;;;;73.03;40.63;;;-0.40;80.60;;;;;;5026815;28;20148;-65
2022/12/10 08:13:38;;;;;;;80.63;42.67;;;-0.40;79.90;;;;;;5026012;28;20041;-65
2022/12/10 08:16:05;;;;;;;101.97;54.28;;;-0.30;80.40;;;;;;5038388;28;20029;-64
2022/12/10 08:18:31;;;;;;;92.30;49.20;;;-0.30;81.40;;;;;;5041850;28;20056;-65
2022/12/10 08:20:57;;;;;;;76.82;39.78;;;-0.30;80.80;;;;;;5038372;28;20449;-64
2022/12/10 08:23:23;;;;;;;63.42;36.97;;;-0.30;79.40;;;;;;5026910;28;20119;-65
2022/12/10 08:25:48;;;;;;;59.88;35.92;;;-0.10;79.00;;;;;;5030809;28;20053;-64
2022/12/10 08:28:15;;;;;;;65.25;35.30;;;0.10;80.00;;;;;;5031069;28;20056;-64
2022/12/10 08:30:45;;;;;;;74.65;41.95;;;0.10;84.10;;;;;;5036060;28;20024;-64
2022/12/10 08:33:11;;;;;;;59.60;35.72;;;0.00;87.10;;;;;;5052933;28;20039;-64
2022/12/10 08:35:36;;;;;;;67.88;38.42;;;0.00;86.10;;;;;;5051470;28;20021;-64
2022/12/10 08:38:02;;;;;;;67.63;39.58;;;0.10;87.00;;;;;;5055034;28;20091;-64
2022/12/10 08:40:28;;;;;;;73.55;42.17;;;0.10;89.70;;;;;;5051702;28;20021;-64
2022/12/10 08:42:53;;;;;;;79.72;42.53;;;0.00;90.80;;;;;;5056207;28;20132;-64
2022/12/10 08:45:19;;;;;;;89.60;49.47;;;-0.10;90.00;;;;;;5043365;28;20033;-64
2022/12/10 08:47:44;;;;;;;105.75;53.47;;;-0.20;90.10;;;;;;5045738;28;20450;-64
2022/12/10 08:50:11;;;;;;;92.22;49.75;;;-0.30;89.40;;;;;;5046845;28;20176;-65
2022/12/10 08:52:37;;;;;;;79.10;43.72;;;-0.40;87.20;;;;;;5051576;28;20029;-64
2022/12/10 08:55:03;;;;;;;61.72;37.42;;;-0.20;85.30;;;;;;5052178;28;20422;-64
2022/12/10 08:57:28;;;;;;;70.78;40.60;;;-0.10;85.90;;;;;;5036832;28;20063;-64
2022/12/10 08:59:54;;;;;;;62.67;38.33;;;0.00;88.20;;;;;;5049103;28;20036;-64
2022/12/10 09:02:19;;;;;;;62.55;40.33;;;0.20;90.00;;;;;;5046284;28;20190;-64
2022/12/10 09:04:50;;;;;;;109.63;50.50;;;0.30;92.70;;;;;;5044669;28;20421;-64
2022/12/10 09:07:15;;;;;;;99.45;51.60;;;0.30;94.80;;;;;;5040412;28;20037;-64
2022/12/10 09:09:41;;;;;;;85.22;47.85;;;0.30;94.10;;;;;;5037293;28;20457;-64
2022/12/10 09:12:06;;;;;;;76.63;41.53;;;0.20;93.40;;;;;;5040629;28;20298;-64
2022/12/10 09:14:32;;;;;;;80.53;46.65;;;0.10;93.10;;;;;;5048154;28;20032;-64
2022/12/10 09:16:57;;;;;;;94.38;47.92;;;0.00;93.10;;;;;;5044487;28;20381;-64
2022/12/10 09:19:23;;;;;;;81.63;44.40;;;-0.10;92.50;;;;;;5046828;28;20021;-64
2022/12/10 09:21:49;;;;;;;61.35;38.42;;;-0.10;91.10;;;;;;5045431;28;20393;-64
2022/12/10 09:24:14;;;;;;;68.93;40.75;;;-0.10;89.80;;;;;;5042915;28;20032;-65
2022/12/10 09:26:40;;;;;;;68.68;40.08;;;-0.10;91.30;;;;;;5054928;28;20381;-65
2022/12/10 09:29:05;;;;;;;62.88;38.10;;;-0.10;90.90;;;;;;5055259;28;20037;-65
2022/12/10 09:31:31;;;;;;;75.93;42.03;;;-0.20;91.50;;;;;;5054504;28;20059;-65
2022/12/10 09:33:56;;;;;;;83.25;48.42;;;-0.20;91.40;;;;;;5041314;28;20056;-65
2022/12/10 09:36:22;;;;;;;68.72;40.33;;;-0.20;90.50;;;;;;5036381;28;20021;-65
2022/12/10 09:38:49;;;;;;;66.47;39.53;;;-0.10;89.80;;;;;;5036613;28;20021;-64
2022/12/10 09:41:22;;;;;;;59.00;37.55;;;0.00;90.80;;;;;;5046066;28;20049;-65
2022/12/10 09:44:09;;;;;;;54.13;34.45;;;0.00;90.80;;;;;;5053644;28;20036;-65
2022/12/10 09:46:44;;;;;;;64.82;38.10;;;0.10;92.00;;;;;;5054944;28;20090;-65
2022/12/10 09:49:12;;;;;;;60.58;36.20;;;0.20;93.10;;;;;;5052965;28;20029;-65
2022/12/10 09:51:38;;;;;;;70.75;41.80;;;0.30;93.30;;;;;;5052485;28;20059;-64
2022/12/10 09:54:27;;;;;;;81.25;44.97;;;0.30;95.30;;;;;;5055514;28;20033;-65
2022/12/10 09:56:55;;;;;;;70.85;41.10;;;0.30;96.00;;;;;;5036755;28;20109;-65
2022/12/10 09:59:46;;;;;;;65.80;37.92;;;0.30;96.00;;;;;;5051925;28;20036;-65
2022/12/10 10:02:28;;;;;;;59.25;34.25;;;0.20;95.80;;;;;;5050232;28;20035;-65
2022/12/10 10:05:09;;;;;;;70.95;40.97;;;0.20;97.80;;;;;;5055087;28;20033;-65
2022/12/10 10:07:39;;;;;;;62.33;37.30;;;0.20;97.00;;;;;;5050604;28;20037;-65
2022/12/10 10:10:31;;;;;;;64.85;39.00;;;0.20;96.50;;;;;;5040815;28;20043;-65
2022/12/10 10:13:08;;;;;;;56.60;34.50;;;0.20;96.50;;;;;;5039477;28;20329;-65
2022/12/10 10:15:37;;;;;;;55.45;34.08;;;0.20;97.30;;;;;;5032398;28;20104;-65
2022/12/10 10:18:28;;;;;;;59.95;37.03;;;0.20;97.20;;;;;;5039474;28;20334;-65
2022/12/10 10:20:55;;;;;;;96.50;45.72;;;0.20;98.00;;;;;;5038864;28;20054;-65
2022/12/10 10:23:20;;;;;;;68.93;40.13;;;0.20;96.80;;;;;;5041564;28;20033;-65
2022/12/10 10:25:46;;;;;;;74.93;41.88;;;0.30;97.20;;;;;;5035557;28;20140;-65
2022/12/10 10:28:22;;;;;;;70.05;40.65;;;0.30;97.20;;;;;;5035587;28;20422;-67
2022/12/10 10:30:52;;;;;;;56.78;35.50;;;0.30;97.20;;;;;;5043303;28;20392;-66
2022/12/10 10:33:17;;;;;;;64.47;37.17;;;0.30;97.70;;;;;;5048995;28;20029;-66
2022/12/10 10:35:47;;;;;;;59.15;37.05;;;0.20;97.60;;;;;;5048129;28;20037;-65
2022/12/10 10:38:23;;;;;;;56.92;35.00;;;0.20;97.00;;;;;;5070715;28;20045;-65
2022/12/10 10:40:55;;;;;;;56.33;35.28;;;0.30;97.30;;;;;;5046760;28;20520;-66
2022/12/10 10:43:26;;;;;;;53.38;32.53;;;0.30;97.90;;;;;;5044998;28;20049;-65
2022/12/10 10:46:10;;;;;;;55.33;34.22;;;0.40;97.90;;;;;;5051823;28;20029;-65
2022/12/10 10:48:40;;;;;;;59.45;36.67;;;0.40;98.00;;;;;;5038011;28;20091;-65
2022/12/10 10:51:12;;;;;;;62.38;38.53;;;0.60;98.00;;;;;;5051945;28;20429;-66
2022/12/10 10:53:56;;;;;;;59.33;38.13;;;0.50;98.00;;;;;;5051096;28;20459;-65
2022/12/10 10:56:29;;;;;;;74.28;42.83;;;0.40;98.00;;;;;;5050162;28;20429;-65
2022/12/10 10:59:06;;;;;;;72.10;42.33;;;0.20;97.90;;;;;;5047925;28;20086;-65
2022/12/10 11:01:48;;;;;;;64.18;39.25;;;0.20;96.60;;;;;;5044022;28;20134;-64
2022/12/10 11:04:15;;;;;;;66.00;38.28;;;0.20;96.00;;;;;;5060467;28;20059;-64
2022/12/10 11:06:42;;;;;;;59.47;37.30;;;0.20;96.10;;;;;;5042765;28;20025;-65
2022/12/10 11:09:20;;;;;;;61.50;37.92;;;0.20;98.00;;;;;;5050946;28;20094;-65
2022/12/10 11:11:51;;;;;;;68.45;42.70;;;0.20;96.80;;;;;;5047260;28;20103;-65
2022/12/10 11:14:30;;;;;;;74.20;44.65;;;0.20;97.00;;;;;;5044526;28;20053;-64
2022/12/10 11:17:13;;;;;;;63.70;38.65;;;0.30;96.00;;;;;;5047041;28;20036;-65
2022/12/10 11:19:43;;;;;;;60.28;36.20;;;0.30;96.80;;;;;;5052256;28;20053;-63
2022/12/10 11:22:19;;;;;;;48.80;31.73;;;0.40;97.00;;;;;;5048488;28;20033;-64
2022/12/10 11:24:47;;;;;;;55.67;32.67;;;0.40;97.90;;;;;;5046352;28;20059;-64
2022/12/10 11:27:36;;;;;;;63.83;36.75;;;0.40;98.00;;;;;;5044975;28;20605;-64
2022/12/10 11:30:22;;;;;;;48.92;30.05;;;0.40;98.00;;;;;;5047279;28;20041;-64
2022/12/10 11:33:12;;;;;;;53.33;31.23;;;0.50;98.00;;;;;;5046827;28;20341;-65
2022/12/10 11:35:51;;;;;;;55.67;32.85;;;0.40;98.00;;;;;;5038816;28;20298;-64
2022/12/10 11:38:34;;;;;;;87.43;46.53;;;0.30;98.00;;;;;;5042085;28;20445;-64
2022/12/10 11:41:44;;;;;;;74.57;44.50;;;0.20;98.00;;;;;;5052365;28;20108;-65
2022/12/10 11:44:29;;;;;;;60.30;36.88;;;0.20;97.20;;;;;;5049869;28;20033;-64
2022/12/10 11:47:29;;;;;;;66.75;39.95;;;0.10;97.70;;;;;;5035605;28;20029;-64
2022/12/10 11:50:08;;;;;;;59.08;34.78;;;0.10;95.90;;;;;;5045017;28;20138;-64
2022/12/10 11:53:11;;;;;;;54.67;33.50;;;0.10;95.50;;;;;;5045095;28;20208;-64
2022/12/10 11:56:09;;;;;;;57.03;35.13;;;0.30;97.50;;;;;;5049447;28;20095;-64
2022/12/10 11:59:04;;;;;;;55.20;33.92;;;0.50;98.00;;;;;;5055938;28;20486;-64
2022/12/10 12:01:38;;;;;;;63.53;37.80;;;0.60;98.00;;;;;;5031228;28;20029;-64
2022/12/10 12:04:26;;;;;;;64.63;38.95;;;0.50;98.00;;;;;;5055795;28;20029;-65
2022/12/10 12:06:57;;;;;;;74.20;41.35;;;0.50;98.00;;;;;;5046521;28;20051;-65
2022/12/10 12:09:32;;;;;;;90.38;49.47;;;0.30;98.00;;;;;;5048237;28;20025;-65
2022/12/10 12:12:48;;;;;;;75.65;45.78;;;0.30;98.00;;;;;;5049895;28;20029;-65
2022/12/10 12:15:50;;;;;;;65.95;40.45;;;0.20;98.00;;;;;;5035212;28;20042;-64
2022/12/10 12:18:45;;;;;;;75.15;42.38;;;0.20;98.00;;;;;;5042376;28;20045;-64
2022/12/10 12:21:16;;;;;;;64.88;38.25;;;0.10;98.00;;;;;;5032641;28;20121;-64
2022/12/10 12:24:01;;;;;;;59.80;38.50;;;0.00;98.00;;;;;;5036968;28;20052;-65
2022/12/10 12:26:36;;;;;;;65.32;39.83;;;0.00;97.40;;;;;;5036160;28;20053;-64
2022/12/10 12:29:11;;;;;;;77.50;48.17;;;0.00;97.90;;;;;;5046734;28;20047;-64
2022/12/10 12:31:45;;;;;;;63.95;39.72;;;0.10;97.00;;;;;;5053561;28;20090;-64
2022/12/10 12:34:20;;;;;;;50.45;30.83;;;0.10;97.90;;;;;;5056123;28;20325;-64
2022/12/10 12:36:46;;;;;;;47.15;29.48;;;0.00;98.00;;;;;;5036823;28;20032;-64
2022/12/10 12:39:43;;;;;;;47.83;30.05;;;0.00;98.00;;;;;;5034888;28;20331;-64
2022/12/10 12:42:26;;;;;;;47.85;29.77;;;0.10;98.00;;;;;;5035481;28;20245;-65
2022/12/10 12:45:01;;;;;;;46.80;28.67;;;0.10;98.00;;;;;;5041879;28;20036;-64
2022/12/10 12:47:41;;;;;;;59.75;36.10;;;0.00;98.00;;;;;;5050396;28;20029;-64
2022/12/10 12:50:18;;;;;;;49.97;31.40;;;0.00;98.00;;;;;;5052732;28;20110;-64
2022/12/10 12:52:51;;;;;;;49.78;29.70;;;0.10;98.00;;;;;;5052996;28;20060;-64
2022/12/10 12:55:21;;;;;;;49.95;31.40;;;0.10;98.00;;;;;;5051489;28;20028;-64
2022/12/10 12:58:03;;;;;;;50.25;30.10;;;0.10;98.00;;;;;;5051432;28;20624;-65
2022/12/10 13:00:35;;;;;;;50.47;33.85;;;0.10;98.00;;;;;;5048619;28;20032;-64